createdAt,value
2016-12-27T00:00:32.658Z,2.88
2016-12-27T00:01:32.974Z,2.87
2016-12-27T00:02:32.974Z,2.88
2016-12-27T00:03:32.974Z,2.68
2016-12-27T00:04:32.638Z,2.75
2016-12-27T00:05:32.962Z,2.59
2016-12-27T00:06:32.630Z,2.73
2016-12-27T00:07:32.954Z,2.58
2016-12-27T00:08:32.294Z,2.61
2016-12-27T00:09:32.946Z,2.46
2016-12-27T00:10:32.950Z,2.55
2016-12-27T00:11:32.942Z,2.61
2016-12-27T00:12:32.930Z,2.44
2016-12-27T00:13:32.930Z,2.46
2016-12-27T00:14:32.598Z,2.46
2016-12-27T00:15:32.922Z,2.37
2016-12-27T00:16:32.578Z,2.3
2016-12-27T00:17:32.923Z,2.26
2016-12-27T00:18:32.586Z,2.25
2016-12-27T00:19:32.574Z,2.16
2016-12-27T00:20:32.935Z,2.18
2016-12-27T00:21:32.898Z,2.15
2016-12-27T00:22:32.566Z,2.14
2016-12-27T00:23:32.554Z,2.12
2016-12-27T00:24:32.218Z,2.05
2016-12-27T00:25:32.882Z,2.07
2016-12-27T00:26:32.542Z,2.01
2016-12-27T00:27:32.538Z,1.89
2016-12-27T00:28:32.870Z,1.89
2016-12-27T00:29:32.529Z,1.75
2016-12-27T00:30:32.534Z,1.79
2016-12-27T00:31:32.530Z,1.75
2016-12-27T00:32:32.521Z,1.67
2016-12-27T00:33:32.517Z,1.63
2016-12-27T00:34:32.845Z,1.6
2016-12-27T00:35:32.505Z,1.61
2016-12-27T00:36:32.833Z,1.7
2016-12-27T00:37:32.493Z,1.67
2016-12-27T00:38:32.826Z,1.61
2016-12-27T00:39:32.489Z,1.64
2016-12-27T00:40:32.817Z,1.64
2016-12-27T00:41:32.808Z,1.66
2016-12-27T00:42:32.481Z,1.58
2016-12-27T00:43:32.469Z,1.58
2016-12-27T00:44:32.800Z,1.48
2016-12-27T00:45:32.465Z,1.48
2016-12-27T00:46:32.457Z,1.43
2016-12-27T00:47:32.457Z,1.38
2016-12-27T00:48:32.449Z,1.2
2016-12-27T00:49:32.781Z,1.18
2016-12-27T00:50:32.769Z,1.2
2016-12-27T00:51:32.437Z,1.14
2016-12-27T00:52:32.765Z,1.14
2016-12-27T00:53:32.426Z,1.06
2016-12-27T00:54:32.429Z,1.03
2016-12-27T00:55:32.749Z,0.96
2016-12-27T00:56:32.741Z,1.04
2016-12-27T00:57:32.417Z,1.02
2016-12-27T00:58:32.761Z,1.13
2016-12-27T00:59:32.409Z,1.06
2016-12-27T01:00:32.733Z,1.09
2016-12-27T01:01:32.721Z,1.04
2016-12-27T01:02:32.385Z,1
2016-12-27T01:03:32.053Z,0.89
2016-12-27T01:04:32.377Z,0.94
2016-12-27T01:05:32.369Z,0.74
2016-12-27T01:06:32.705Z,0.85
2016-12-27T01:07:32.701Z,0.76
2016-12-27T01:08:32.689Z,0.77
2016-12-27T01:09:32.685Z,0.7
2016-12-27T01:10:32.685Z,0.67
2016-12-27T01:11:32.681Z,0.67
2016-12-27T01:12:32.669Z,0.68
2016-12-27T01:13:32.669Z,0.68
2016-12-27T01:14:32.669Z,0.67
2016-12-27T01:15:32.329Z,0.7
2016-12-27T01:16:32.325Z,0.73
2016-12-27T01:17:32.657Z,0.78
2016-12-27T01:18:32.653Z,0.74
2016-12-27T01:19:32.317Z,0.7
2016-12-27T01:20:32.313Z,0.68
2016-12-27T01:21:32.313Z,0.64
2016-12-27T01:22:32.625Z,0.59
2016-12-27T01:23:32.626Z,0.58
2016-12-27T01:24:32.297Z,0.56
2016-12-27T01:25:32.290Z,0.58
2016-12-27T01:26:32.614Z,0.55
2016-12-27T01:27:32.614Z,0.52
2016-12-27T01:28:32.278Z,0.48
2016-12-27T01:29:32.277Z,0.48
2016-12-27T01:30:32.593Z,0.42
2016-12-27T01:31:32.594Z,0.34
2016-12-27T01:32:31.934Z,0.39
2016-12-27T01:33:32.586Z,0.3
2016-12-27T01:34:32.584Z,0.36
2016-12-27T01:35:32.574Z,0.27
2016-12-27T01:36:32.242Z,0.2
2016-12-27T01:37:32.238Z,0.2
2016-12-27T01:38:32.562Z,0.06
2016-12-27T01:39:31.891Z,0.15
2016-12-27T01:40:32.226Z,0.09
2016-12-27T01:41:32.218Z,0.12
2016-12-27T01:42:32.218Z,0.01
2016-12-27T01:43:32.223Z,-0.05
2016-12-27T01:44:32.539Z,-0.07
2016-12-27T01:45:32.199Z,-0.15
2016-12-27T01:46:32.519Z,-0.12
2016-12-27T01:47:32.511Z,-0.07
2016-12-27T01:48:32.191Z,-0.12
2016-12-27T01:49:32.519Z,-0.09
2016-12-27T01:50:31.844Z,-0.02
2016-12-27T01:51:32.171Z,-0.02
2016-12-27T01:52:32.171Z,-0.02
2016-12-27T01:53:32.491Z,0.01
2016-12-27T01:54:32.492Z,0.02
2016-12-27T01:55:32.155Z,0.11
2016-12-27T01:56:32.475Z,0.13
2016-12-27T01:57:32.135Z,0.2
2016-12-27T01:58:32.132Z,0.31
2016-12-27T01:59:31.812Z,0.34
2016-12-27T02:00:32.455Z,0.39
2016-12-27T02:01:32.127Z,0.37
2016-12-27T02:02:32.124Z,0.45
2016-12-27T02:03:32.120Z,0.47
2016-12-27T02:04:32.120Z,0.49
2016-12-27T02:05:32.104Z,0.45
2016-12-27T02:06:32.428Z,0.48
2016-12-27T02:07:32.428Z,0.48
2016-12-27T02:08:32.420Z,0.49
2016-12-27T02:09:32.084Z,0.55
2016-12-27T02:10:32.080Z,0.44
2016-12-27T02:11:32.085Z,0.48
2016-12-27T02:12:31.752Z,0.33
2016-12-27T02:13:32.073Z,0.39
2016-12-27T02:14:32.065Z,0.3
2016-12-27T02:15:32.393Z,0.34
2016-12-27T02:16:32.053Z,0.31
2016-12-27T02:17:32.053Z,0.19
2016-12-27T02:18:31.725Z,0.27
2016-12-27T02:19:32.375Z,0.23
2016-12-27T02:20:32.365Z,0.19
2016-12-27T02:21:32.029Z,0.16
2016-12-27T02:22:32.033Z,0.19
2016-12-27T02:23:32.345Z,0.19
2016-12-27T02:24:32.009Z,0.24
2016-12-27T02:25:32.019Z,0.26
2016-12-27T02:26:32.005Z,0.33
2016-12-27T02:27:32.005Z,0.39
2016-12-27T02:28:32.010Z,0.47
2016-12-27T02:29:32.326Z,0.52
2016-12-27T02:30:31.994Z,0.42
2016-12-27T02:31:32.310Z,0.52
2016-12-27T02:32:32.314Z,0.42
2016-12-27T02:33:32.310Z,0.52
2016-12-27T02:34:32.306Z,0.51
2016-12-27T02:35:31.639Z,0.51
2016-12-27T02:36:31.958Z,0.56
2016-12-27T02:37:31.955Z,0.59
2016-12-27T02:38:31.954Z,0.48
2016-12-27T02:39:32.278Z,0.58
2016-12-27T02:40:31.946Z,0.59
2016-12-27T02:41:31.943Z,0.63
2016-12-27T02:42:31.606Z,0.63
2016-12-27T02:43:31.931Z,0.63
2016-12-27T02:44:32.247Z,0.68
2016-12-27T02:45:32.239Z,0.71
2016-12-27T02:46:32.244Z,0.63
2016-12-27T02:47:31.906Z,0.7
2016-12-27T02:48:31.912Z,0.67
2016-12-27T02:49:32.227Z,0.64
2016-12-27T02:50:32.232Z,0.67
2016-12-27T02:51:32.222Z,0.63
2016-12-27T02:52:31.886Z,0.64
2016-12-27T02:53:31.874Z,0.63
2016-12-27T02:54:31.871Z,0.61
2016-12-27T02:55:31.867Z,0.55
2016-12-27T02:56:31.862Z,0.56
2016-12-27T02:57:32.194Z,0.52
2016-12-27T02:58:32.185Z,0.42
2016-12-27T02:59:31.858Z,0.33
2016-12-27T03:00:32.174Z,0.27
2016-12-27T03:01:32.170Z,0.23
2016-12-27T03:02:31.834Z,0.19
2016-12-27T03:03:31.830Z,0.19
2016-12-27T03:04:31.822Z,0.16
2016-12-27T03:05:32.146Z,0.09
2016-12-27T03:06:32.146Z,0.09
2016-12-27T03:07:31.810Z,0.08
2016-12-27T03:08:31.858Z,0.01
2016-12-27T03:09:32.138Z,-0.06
2016-12-27T03:10:32.130Z,-0.03
2016-12-27T03:11:31.782Z,-0.1
2016-12-27T03:12:31.781Z,-0.06
2016-12-27T03:13:31.778Z,-0.12
2016-12-27T03:14:31.446Z,-0.07
2016-12-27T03:15:31.770Z,-0.1
2016-12-27T03:16:31.765Z,-0.2
2016-12-27T03:17:31.753Z,-0.38
2016-12-27T03:18:32.113Z,-0.3
2016-12-27T03:19:31.753Z,-0.31
2016-12-27T03:20:32.070Z,-0.38
2016-12-27T03:21:32.069Z,-0.35
2016-12-27T03:22:32.067Z,-0.2
2016-12-27T03:23:31.733Z,-0.12
2016-12-27T03:24:31.725Z,-0.12
2016-12-27T03:25:32.053Z,-0.1
2016-12-27T03:26:31.393Z,-0.03
2016-12-27T03:27:32.041Z,-0.02
2016-12-27T03:28:32.025Z,-0.06
2016-12-27T03:29:32.024Z,0.06
2016-12-27T03:30:31.693Z,0.23
2016-12-27T03:31:32.017Z,0.24
2016-12-27T03:32:32.013Z,0.3
2016-12-27T03:33:32.017Z,0.39
2016-12-27T03:34:32.005Z,0.55
2016-12-27T03:35:31.677Z,0.52
2016-12-27T03:36:31.333Z,0.64
2016-12-27T03:37:32.017Z,0.67
2016-12-27T03:38:31.657Z,0.77
2016-12-27T03:39:31.656Z,0.86
2016-12-27T03:40:31.977Z,0.82
2016-12-27T03:41:31.972Z,0.91
2016-12-27T03:42:31.965Z,0.88
2016-12-27T03:43:31.628Z,1.02
2016-12-27T03:44:31.960Z,0.99
2016-12-27T03:45:31.624Z,1
2016-12-27T03:46:31.292Z,1
2016-12-27T03:47:31.940Z,0.96
2016-12-27T03:48:31.936Z,1.02
2016-12-27T03:49:31.592Z,1
2016-12-27T03:50:31.924Z,0.92
2016-12-27T03:51:31.924Z,1.02
2016-12-27T03:52:31.584Z,1.02
2016-12-27T03:53:31.256Z,0.89
2016-12-27T03:54:31.899Z,0.91
2016-12-27T03:55:31.895Z,0.89
2016-12-27T03:56:31.243Z,0.76
2016-12-27T03:57:31.887Z,0.76
2016-12-27T03:58:31.879Z,0.64
2016-12-27T03:59:31.215Z,0.56
2016-12-27T04:00:31.882Z,0.64
2016-12-27T04:01:31.871Z,0.58
2016-12-27T04:02:31.539Z,0.4
2016-12-27T04:03:31.523Z,0.39
2016-12-27T04:04:31.858Z,0.42
2016-12-27T04:05:31.847Z,0.26
2016-12-27T04:06:31.194Z,0.16
2016-12-27T04:07:31.517Z,0.19
2016-12-27T04:08:31.831Z,0.24
2016-12-27T04:09:31.830Z,0.12
2016-12-27T04:10:31.495Z,0.12
2016-12-27T04:11:31.486Z,0.13
2016-12-27T04:12:31.158Z,0.13
2016-12-27T04:13:31.478Z,0.12
2016-12-27T04:14:31.802Z,0.15
2016-12-27T04:15:31.802Z,0.11
2016-12-27T04:16:31.791Z,0.06
2016-12-27T04:17:31.459Z,0.09
2016-12-27T04:18:31.776Z,0.13
2016-12-27T04:19:31.780Z,0.12
2016-12-27T04:20:31.772Z,0.09
2016-12-27T04:21:31.772Z,0.13
2016-12-27T04:22:31.436Z,0.2
2016-12-27T04:23:31.760Z,0.18
2016-12-27T04:24:31.756Z,0.16
2016-12-27T04:25:31.749Z,0.36
2016-12-27T04:26:31.425Z,0.33
2016-12-27T04:27:31.733Z,0.34
2016-12-27T04:28:31.733Z,0.4
2016-12-27T04:29:31.401Z,0.47
2016-12-27T04:30:31.722Z,0.52
2016-12-27T04:31:31.718Z,0.59
2016-12-27T04:32:31.726Z,0.61
2016-12-27T04:33:31.386Z,0.66
2016-12-27T04:34:31.382Z,0.58
2016-12-27T04:35:31.710Z,0.71
2016-12-27T04:36:31.371Z,0.78
2016-12-27T04:37:31.363Z,0.76
2016-12-27T04:38:31.371Z,0.84
2016-12-27T04:39:31.682Z,0.85
2016-12-27T04:40:31.352Z,0.92
2016-12-27T04:41:31.027Z,0.91
2016-12-27T04:42:31.667Z,0.88
2016-12-27T04:43:31.660Z,0.94
2016-12-27T04:44:31.008Z,0.91
2016-12-27T04:45:31.328Z,0.91
2016-12-27T04:46:31.320Z,0.99
2016-12-27T04:47:31.636Z,0.91
2016-12-27T04:48:30.992Z,0.94
2016-12-27T04:49:31.636Z,0.89
2016-12-27T04:50:31.296Z,0.77
2016-12-27T04:51:31.289Z,0.71
2016-12-27T04:52:31.288Z,0.71
2016-12-27T04:53:31.617Z,0.64
2016-12-27T04:54:31.620Z,0.58
2016-12-27T04:55:31.285Z,0.55
2016-12-27T04:56:31.609Z,0.45
2016-12-27T04:57:31.265Z,0.34
2016-12-27T04:58:31.261Z,0.37
2016-12-27T04:59:30.933Z,0.36
2016-12-27T05:00:31.585Z,0.27
2016-12-27T05:01:31.249Z,0.19
2016-12-27T05:02:31.245Z,0.16
2016-12-27T05:03:31.562Z,0.08
2016-12-27T05:04:31.242Z,-0.03
2016-12-27T05:05:31.233Z,-0.02
2016-12-27T05:06:31.545Z,-0.07
2016-12-27T05:07:31.213Z,-0.15
2016-12-27T05:08:31.209Z,-0.17
2016-12-27T05:09:31.205Z,-0.18
2016-12-27T05:10:31.537Z,-0.35
2016-12-27T05:11:31.521Z,-0.27
2016-12-27T05:12:31.525Z,-0.41
2016-12-27T05:13:30.861Z,-0.35
2016-12-27T05:14:31.189Z,-0.49
2016-12-27T05:15:31.509Z,-0.57
2016-12-27T05:16:31.193Z,-0.57
2016-12-27T05:17:31.173Z,-0.59
2016-12-27T05:18:31.161Z,-0.64
2016-12-27T05:19:31.489Z,-0.69
2016-12-27T05:20:30.829Z,-0.64
2016-12-27T05:21:31.149Z,-0.81
2016-12-27T05:22:31.145Z,-0.77
2016-12-27T05:23:31.465Z,-0.8
2016-12-27T05:24:31.133Z,-0.72
2016-12-27T05:25:31.448Z,-0.78
2016-12-27T05:26:31.125Z,-0.8
2016-12-27T05:27:31.116Z,-0.85
2016-12-27T05:28:30.785Z,-0.82
2016-12-27T05:29:31.441Z,-0.84
2016-12-27T05:30:31.429Z,-0.82
2016-12-27T05:31:31.096Z,-0.82
2016-12-27T05:32:31.085Z,-0.77
2016-12-27T05:33:31.416Z,-0.8
2016-12-27T05:34:31.420Z,-0.84
2016-12-27T05:35:31.402Z,-0.72
2016-12-27T05:36:30.748Z,-0.77
2016-12-27T05:37:31.068Z,-0.78
2016-12-27T05:38:31.397Z,-0.82
2016-12-27T05:39:31.377Z,-0.75
2016-12-27T05:40:31.053Z,-0.72
2016-12-27T05:41:31.380Z,-0.7
2016-12-27T05:42:31.377Z,-0.75
2016-12-27T05:43:31.041Z,-0.77
2016-12-27T05:44:31.037Z,-0.78
2016-12-27T05:45:31.029Z,-0.87
2016-12-27T05:46:31.348Z,-0.78
2016-12-27T05:47:31.341Z,-0.84
2016-12-27T05:48:31.341Z,-0.77
2016-12-27T05:49:30.685Z,-0.69
2016-12-27T05:50:31.001Z,-0.62
2016-12-27T05:51:31.325Z,-0.57
2016-12-27T05:52:31.321Z,-0.62
2016-12-27T05:53:30.992Z,-0.64
2016-12-27T05:54:31.302Z,-0.56
2016-12-27T05:55:30.980Z,-0.48
2016-12-27T05:56:31.311Z,-0.46
2016-12-27T05:57:31.293Z,-0.46
2016-12-27T05:58:31.289Z,-0.53
2016-12-27T05:59:30.953Z,-0.41
2016-12-27T06:00:31.281Z,-0.51
2016-12-27T06:01:30.617Z,-0.59
2016-12-27T06:02:30.609Z,-0.56
2016-12-27T06:03:31.274Z,-0.63
2016-12-27T06:04:31.265Z,-0.74
2016-12-27T06:05:30.926Z,-0.66
2016-12-27T06:06:31.246Z,-0.77
2016-12-27T06:07:30.914Z,-0.87
2016-12-27T06:08:31.239Z,-0.94
2016-12-27T06:09:30.907Z,-0.93
2016-12-27T06:10:31.227Z,-0.97
2016-12-27T06:11:31.227Z,-1.03
2016-12-27T06:12:30.899Z,-1.07
2016-12-27T06:13:31.224Z,-1.17
2016-12-27T06:14:31.208Z,-1.12
2016-12-27T06:15:30.544Z,-1.12
2016-12-27T06:16:30.872Z,-1.06
2016-12-27T06:17:30.868Z,-1.18
2016-12-27T06:18:31.184Z,-1.03
2016-12-27T06:19:31.185Z,-1.12
2016-12-27T06:20:31.181Z,-1.03
2016-12-27T06:21:30.845Z,-1.07
2016-12-27T06:22:30.845Z,-1.04
2016-12-27T06:23:30.841Z,-1.06
2016-12-27T06:24:30.834Z,-1.09
2016-12-27T06:25:31.157Z,-1.18
2016-12-27T06:26:30.830Z,-1.11
2016-12-27T06:27:31.145Z,-1.09
2016-12-27T06:28:31.149Z,-1.17
2016-12-27T06:29:31.137Z,-1.18
2016-12-27T06:30:30.802Z,-1.09
2016-12-27T06:31:30.802Z,-1.11
2016-12-27T06:32:30.798Z,-1.15
2016-12-27T06:33:30.821Z,-1.11
2016-12-27T06:34:30.783Z,-1.15
2016-12-27T06:35:31.105Z,-1.18
2016-12-27T06:36:30.771Z,-1.25
2016-12-27T06:37:31.088Z,-1.19
2016-12-27T06:38:31.088Z,-1.36
2016-12-27T06:39:31.088Z,-1.3
2016-12-27T06:40:30.752Z,-1.38
2016-12-27T06:41:31.076Z,-1.43
2016-12-27T06:42:31.068Z,-1.48
2016-12-27T06:43:30.736Z,-1.46
2016-12-27T06:44:30.725Z,-1.57
2016-12-27T06:45:30.730Z,-1.66
2016-12-27T06:46:30.721Z,-1.66
2016-12-27T06:47:30.728Z,-1.64
2016-12-27T06:48:30.713Z,-1.63
2016-12-27T06:49:30.377Z,-1.74
2016-12-27T06:50:30.697Z,-1.82
2016-12-27T06:51:31.030Z,-1.82
2016-12-27T06:52:30.690Z,-1.79
2016-12-27T06:53:31.021Z,-1.84
2016-12-27T06:54:31.010Z,-1.86
2016-12-27T06:55:31.001Z,-1.87
2016-12-27T06:56:30.999Z,-1.87
2016-12-27T06:57:30.682Z,-1.86
2016-12-27T06:58:30.661Z,-1.87
2016-12-27T06:59:30.977Z,-1.92
2016-12-27T07:00:30.981Z,-1.92
2016-12-27T07:01:30.645Z,-1.94
2016-12-27T07:02:30.973Z,-1.92
2016-12-27T07:03:30.961Z,-1.87
2016-12-27T07:04:30.625Z,-1.84
2016-12-27T07:05:30.625Z,-1.89
2016-12-27T07:06:30.945Z,-1.92
2016-12-27T07:07:30.613Z,-1.86
2016-12-27T07:08:30.609Z,-1.86
2016-12-27T07:09:30.925Z,-1.82
2016-12-27T07:10:30.585Z,-1.82
2016-12-27T07:11:30.593Z,-1.84
2016-12-27T07:12:30.909Z,-1.86
2016-12-27T07:13:30.585Z,-1.86
2016-12-27T07:14:30.397Z,-1.82
2016-12-27T07:15:30.565Z,-1.84
2016-12-27T07:16:30.241Z,-1.78
2016-12-27T07:17:30.589Z,-1.79
2016-12-27T07:18:30.561Z,-1.75
2016-12-27T07:19:30.553Z,-1.79
2016-12-27T07:20:30.549Z,-1.84
2016-12-27T07:21:30.869Z,-1.82
2016-12-27T07:22:30.200Z,-1.71
2016-12-27T07:23:30.533Z,-1.78
2016-12-27T07:24:30.523Z,-1.78
2016-12-27T07:25:30.849Z,-1.74
2016-12-27T07:26:30.837Z,-1.76
2016-12-27T07:27:30.833Z,-1.63
2016-12-27T07:28:30.501Z,-1.6
2016-12-27T07:29:30.497Z,-1.54
2016-12-27T07:30:30.825Z,-1.45
2016-12-27T07:31:30.817Z,-1.51
2016-12-27T07:32:30.809Z,-1.36
2016-12-27T07:33:30.472Z,-1.27
2016-12-27T07:34:30.473Z,-1.32
2016-12-27T07:35:30.785Z,-1.24
2016-12-27T07:36:30.789Z,-1.01
2016-12-27T07:37:30.785Z,-1.04
2016-12-27T07:38:30.781Z,-1.01
2016-12-27T07:39:30.925Z,-0.93
2016-12-27T07:40:30.773Z,-0.94
2016-12-27T07:41:30.445Z,-0.96
2016-12-27T07:42:30.425Z,-0.93
2016-12-27T07:43:30.757Z,-0.84
2016-12-27T07:44:30.422Z,-0.8
2016-12-27T07:45:30.742Z,-0.81
2016-12-27T07:46:30.410Z,-0.84
2016-12-27T07:47:30.401Z,-0.8
2016-12-27T07:48:30.070Z,-0.85
2016-12-27T07:49:30.393Z,-0.7
2016-12-27T07:50:30.388Z,-0.85
2016-12-27T07:51:30.714Z,-0.81
2016-12-27T07:52:30.706Z,-0.8
2016-12-27T07:53:30.702Z,-0.77
2016-12-27T07:54:30.722Z,-0.8
2016-12-27T07:55:30.366Z,-0.77
2016-12-27T07:56:30.357Z,-0.77
2016-12-27T07:57:30.678Z,-0.74
2016-12-27T07:58:30.350Z,-0.72
2016-12-27T07:59:30.346Z,-0.74
2016-12-27T08:00:30.662Z,-0.75
2016-12-27T08:01:30.662Z,-0.77
2016-12-27T08:02:30.330Z,-0.77
2016-12-27T08:03:30.318Z,-0.77
2016-12-27T08:04:29.994Z,-0.78
2016-12-27T08:05:30.319Z,-0.78
2016-12-27T08:06:30.303Z,-0.77
2016-12-27T08:07:30.298Z,-0.81
2016-12-27T08:08:30.626Z,-0.82
2016-12-27T08:09:30.622Z,-0.81
2016-12-27T08:10:30.618Z,-0.78
2016-12-27T08:11:30.282Z,-0.77
2016-12-27T08:12:30.282Z,-0.78
2016-12-27T08:13:30.598Z,-0.78
2016-12-27T08:14:30.270Z,-0.78
2016-12-27T08:15:30.590Z,-0.75
2016-12-27T08:16:30.590Z,-0.77
2016-12-27T08:17:30.578Z,-0.67
2016-12-27T08:18:29.946Z,-0.7
2016-12-27T08:19:30.574Z,-0.74
2016-12-27T08:20:30.563Z,-0.69
2016-12-27T08:21:30.562Z,-0.77
2016-12-27T08:22:30.554Z,-0.66
2016-12-27T08:23:30.210Z,-0.59
2016-12-27T08:24:30.222Z,-0.63
2016-12-27T08:25:30.538Z,-0.63
2016-12-27T08:26:30.561Z,-0.54
2016-12-27T08:27:30.531Z,-0.51
2016-12-27T08:28:30.199Z,-0.49
2016-12-27T08:29:30.511Z,-0.44
2016-12-27T08:30:30.523Z,-0.49
2016-12-27T08:31:30.521Z,-0.33
2016-12-27T08:32:29.847Z,-0.31
2016-12-27T08:33:30.495Z,-0.3
2016-12-27T08:34:30.175Z,-0.28
2016-12-27T08:35:30.487Z,-0.23
2016-12-27T08:36:30.151Z,-0.21
2016-12-27T08:37:30.483Z,-0.2
2016-12-27T08:38:30.151Z,-0.17
2016-12-27T08:39:30.144Z,-0.1
2016-12-27T08:40:30.467Z,-0.05
2016-12-27T08:41:30.135Z,-0.15
2016-12-27T08:42:30.131Z,-0.12
2016-12-27T08:43:30.120Z,-0.02
2016-12-27T08:44:29.792Z,-0.05
2016-12-27T08:45:30.440Z,-0.07
2016-12-27T08:46:30.432Z,-0.1
2016-12-27T08:47:30.424Z,0.02
2016-12-27T08:48:29.804Z,0.02
2016-12-27T08:49:29.761Z,0.06
2016-12-27T08:50:30.112Z,0.08
2016-12-27T08:51:30.100Z,0.08
2016-12-27T08:52:30.080Z,0.08
2016-12-27T08:53:30.072Z,0.08
2016-12-27T08:54:30.392Z,0.15
2016-12-27T08:55:30.392Z,0.18
2016-12-27T08:56:30.385Z,0.16
2016-12-27T08:57:30.384Z,0.19
2016-12-27T08:58:30.052Z,0.2
2016-12-27T08:59:30.369Z,0.26
2016-12-27T09:00:29.713Z,0.3
2016-12-27T09:01:30.356Z,0.31
2016-12-27T09:02:30.033Z,0.3
2016-12-27T09:03:30.353Z,0.33
2016-12-27T09:04:30.020Z,0.45
2016-12-27T09:05:30.017Z,0.48
2016-12-27T09:06:30.349Z,0.49
2016-12-27T09:07:30.335Z,0.52
2016-12-27T09:08:30.329Z,0.64
2016-12-27T09:09:30.327Z,0.59
2016-12-27T09:10:30.325Z,0.59
2016-12-27T09:11:30.309Z,0.66
2016-12-27T09:12:29.986Z,0.73
2016-12-27T09:13:30.305Z,0.63
2016-12-27T09:14:29.969Z,0.67
2016-12-27T09:15:29.970Z,0.74
2016-12-27T09:16:30.290Z,0.74
2016-12-27T09:17:29.956Z,0.73
2016-12-27T09:18:29.950Z,0.71
2016-12-27T09:19:30.277Z,0.78
2016-12-27T09:20:29.938Z,0.84
2016-12-27T09:21:30.270Z,0.91
2016-12-27T09:22:29.934Z,0.86
2016-12-27T09:23:30.270Z,0.99
2016-12-27T09:24:30.246Z,1.07
2016-12-27T09:25:29.918Z,1.02
2016-12-27T09:26:29.906Z,1.02
2016-12-27T09:27:30.238Z,1.07
2016-12-27T09:28:29.914Z,1.2
2016-12-27T09:29:30.230Z,1.21
2016-12-27T09:30:29.902Z,1.21
2016-12-27T09:31:30.210Z,1.25
2016-12-27T09:32:30.210Z,1.38
2016-12-27T09:33:30.210Z,1.3
2016-12-27T09:34:30.202Z,1.49
2016-12-27T09:35:29.874Z,1.46
2016-12-27T09:36:29.889Z,1.53
2016-12-27T09:37:29.865Z,1.58
2016-12-27T09:38:29.862Z,1.6
2016-12-27T09:39:29.846Z,1.6
2016-12-27T09:40:30.181Z,1.64
2016-12-27T09:41:30.173Z,1.61
2016-12-27T09:42:30.169Z,1.67
2016-12-27T09:43:29.829Z,1.71
2016-12-27T09:44:30.161Z,1.75
2016-12-27T09:45:30.157Z,1.81
2016-12-27T09:46:29.821Z,1.85
2016-12-27T09:47:29.817Z,1.93
2016-12-27T09:48:29.805Z,1.92
2016-12-27T09:49:30.156Z,2.01
2016-12-27T09:50:29.805Z,2.08
2016-12-27T09:51:29.801Z,2.1
2016-12-27T09:52:30.125Z,2.03
2016-12-27T09:53:29.789Z,2.1
2016-12-27T09:54:30.113Z,2.18
2016-12-27T09:55:29.781Z,2.18
2016-12-27T09:56:30.101Z,2.25
2016-12-27T09:57:29.769Z,2.4
2016-12-27T09:58:29.761Z,2.4
2016-12-27T09:59:30.090Z,2.4
2016-12-27T10:00:30.085Z,2.47
2016-12-27T10:01:29.758Z,2.47
2016-12-27T10:02:30.082Z,2.58
2016-12-27T10:03:29.738Z,2.47
2016-12-27T10:04:29.734Z,2.57
2016-12-27T10:05:30.062Z,2.55
2016-12-27T10:06:30.054Z,2.62
2016-12-27T10:07:29.730Z,2.47
2016-12-27T10:08:29.722Z,2.69
2016-12-27T10:09:29.722Z,2.72
2016-12-27T10:10:30.039Z,2.62
2016-12-27T10:11:30.034Z,2.69
2016-12-27T10:12:29.374Z,2.82
2016-12-27T10:13:30.022Z,2.85
2016-12-27T10:14:29.698Z,2.77
2016-12-27T10:15:30.014Z,2.88
2016-12-27T10:16:29.678Z,2.83
2016-12-27T10:17:29.359Z,2.85
2016-12-27T10:18:29.680Z,2.9
2016-12-27T10:19:29.998Z,2.82
2016-12-27T10:20:29.998Z,2.82
2016-12-27T10:21:29.666Z,3.06
2016-12-27T10:22:29.655Z,2.95
2016-12-27T10:23:29.646Z,3.01
2016-12-27T10:24:29.982Z,2.95
2016-12-27T10:25:29.639Z,2.94
2016-12-27T10:26:29.639Z,3.03
2016-12-27T10:27:29.630Z,3.05
2016-12-27T10:28:29.626Z,3.03
2016-12-27T10:29:29.954Z,3.15
2016-12-27T10:30:29.942Z,3.18
2016-12-27T10:31:29.946Z,3.21
2016-12-27T10:32:29.942Z,3.16
2016-12-27T10:33:29.942Z,3.15
2016-12-27T10:34:29.606Z,3.19
2016-12-27T10:35:29.930Z,3.24
2016-12-27T10:36:29.597Z,3.16
2016-12-27T10:37:29.589Z,3.26
2016-12-27T10:38:29.599Z,3.3
2016-12-27T10:39:29.582Z,3.27
2016-12-27T10:40:29.905Z,3.29
2016-12-27T10:41:29.909Z,3.3
2016-12-27T10:42:29.897Z,3.21
2016-12-27T10:43:29.569Z,3.26
2016-12-27T10:44:29.561Z,3.33
2016-12-27T10:45:29.881Z,3.34
2016-12-27T10:46:29.877Z,3.45
2016-12-27T10:47:29.549Z,3.45
2016-12-27T10:48:29.873Z,3.49
2016-12-27T10:49:29.873Z,3.53
2016-12-27T10:50:29.529Z,3.48
2016-12-27T10:51:29.532Z,3.56
2016-12-27T10:52:29.864Z,3.52
2016-12-27T10:53:29.524Z,3.68
2016-12-27T10:54:29.192Z,3.64
2016-12-27T10:55:29.516Z,3.78
2016-12-27T10:56:29.508Z,3.81
2016-12-27T10:57:29.836Z,3.86
2016-12-27T10:58:29.171Z,3.92
2016-12-27T10:59:29.824Z,3.94
2016-12-27T11:00:29.495Z,4.03
2016-12-27T11:01:29.484Z,4.12
2016-12-27T11:02:29.812Z,4.16
2016-12-27T11:03:29.811Z,4.24
2016-12-27T11:04:29.803Z,4.31
2016-12-27T11:05:29.804Z,4.21
2016-12-27T11:06:29.791Z,4.36
2016-12-27T11:07:29.794Z,4.4
2016-12-27T11:08:29.786Z,4.4
2016-12-27T11:09:29.450Z,4.4
2016-12-27T11:10:29.773Z,4.36
2016-12-27T11:11:29.441Z,4.5
2016-12-27T11:12:29.437Z,4.46
2016-12-27T11:13:29.761Z,4.53
2016-12-27T11:14:29.761Z,4.48
2016-12-27T11:15:29.753Z,4.5
2016-12-27T11:16:29.748Z,4.43
2016-12-27T11:17:29.412Z,4.48
2016-12-27T11:18:29.744Z,4.56
2016-12-27T11:19:29.076Z,4.61
2016-12-27T11:20:29.736Z,4.58
2016-12-27T11:21:29.400Z,4.57
2016-12-27T11:22:29.395Z,4.56
2016-12-27T11:23:29.387Z,4.57
2016-12-27T11:24:29.380Z,4.61
2016-12-27T11:25:29.379Z,4.64
2016-12-27T11:26:29.715Z,4.74
2016-12-27T11:27:29.711Z,4.75
2016-12-27T11:28:29.380Z,4.71
2016-12-27T11:29:29.039Z,4.71
2016-12-27T11:30:29.369Z,4.68
2016-12-27T11:31:29.354Z,4.75
2016-12-27T11:32:29.682Z,4.74
2016-12-27T11:33:29.342Z,4.7
2016-12-27T11:34:29.677Z,4.67
2016-12-27T11:35:29.670Z,4.76
2016-12-27T11:36:29.338Z,4.76
2016-12-27T11:37:29.341Z,4.79
2016-12-27T11:38:29.658Z,4.78
2016-12-27T11:39:29.329Z,4.74
2016-12-27T11:40:29.645Z,4.82
2016-12-27T11:41:29.327Z,4.75
2016-12-27T11:42:29.641Z,4.82
2016-12-27T11:43:29.633Z,4.74
2016-12-27T11:44:29.302Z,4.78
2016-12-27T11:45:29.626Z,4.78
2016-12-27T11:46:29.622Z,4.79
2016-12-27T11:47:29.613Z,4.79
2016-12-27T11:48:29.289Z,4.86
2016-12-27T11:49:29.617Z,4.78
2016-12-27T11:50:29.281Z,4.84
2016-12-27T11:51:28.945Z,4.75
2016-12-27T11:52:29.597Z,4.76
2016-12-27T11:53:29.596Z,4.78
2016-12-27T11:54:29.596Z,4.78
2016-12-27T11:55:29.593Z,4.82
2016-12-27T11:56:29.249Z,4.76
2016-12-27T11:57:29.257Z,4.82
2016-12-27T11:58:29.248Z,4.78
2016-12-27T11:59:29.245Z,4.78
2016-12-27T12:00:29.572Z,4.78
2016-12-27T12:01:29.568Z,4.95
2016-12-27T12:02:29.229Z,4.94
2016-12-27T12:03:29.560Z,4.89
2016-12-27T12:04:29.553Z,4.75
2016-12-27T12:05:29.240Z,4.82
2016-12-27T12:06:29.544Z,4.78
2016-12-27T12:07:29.536Z,4.82
2016-12-27T12:08:29.212Z,4.82
2016-12-27T12:09:29.535Z,4.74
2016-12-27T12:10:29.200Z,4.76
2016-12-27T12:11:29.192Z,4.82
2016-12-27T12:12:29.520Z,4.78
2016-12-27T12:13:28.864Z,4.78
2016-12-27T12:14:29.188Z,4.78
2016-12-27T12:15:29.508Z,4.83
2016-12-27T12:16:29.505Z,4.83
2016-12-27T12:17:29.168Z,4.83
2016-12-27T12:18:29.181Z,4.9
2016-12-27T12:19:29.493Z,4.92
2016-12-27T12:20:29.161Z,4.89
2016-12-27T12:21:29.493Z,4.94
2016-12-27T12:22:29.481Z,4.92
2016-12-27T12:23:29.485Z,4.94
2016-12-27T12:24:29.145Z,4.9
2016-12-27T12:25:29.145Z,4.9
2016-12-27T12:26:29.150Z,4.92
2016-12-27T12:27:29.453Z,4.95
2016-12-27T12:28:29.454Z,4.9
2016-12-27T12:29:29.458Z,4.83
2016-12-27T12:30:28.810Z,4.89
2016-12-27T12:31:29.121Z,4.87
2016-12-27T12:32:29.122Z,4.92
2016-12-27T12:33:29.446Z,4.92
2016-12-27T12:34:29.438Z,4.82
2016-12-27T12:35:29.438Z,4.76
2016-12-27T12:36:29.107Z,4.74
2016-12-27T12:37:29.426Z,4.71
2016-12-27T12:38:29.098Z,4.79
2016-12-27T12:39:29.099Z,4.79
2016-12-27T12:40:29.094Z,4.78
2016-12-27T12:41:29.086Z,4.82
2016-12-27T12:42:29.082Z,4.75
2016-12-27T12:43:29.411Z,4.84
2016-12-27T12:44:29.403Z,4.89
2016-12-27T12:45:29.395Z,4.94
2016-12-27T12:46:29.391Z,4.9
2016-12-27T12:47:29.399Z,4.9
2016-12-27T12:48:29.387Z,4.92
2016-12-27T12:49:29.378Z,4.9
2016-12-27T12:50:28.727Z,4.87
2016-12-27T12:51:29.379Z,4.9
2016-12-27T12:52:29.043Z,4.86
2016-12-27T12:53:29.367Z,4.89
2016-12-27T12:54:29.039Z,4.94
2016-12-27T12:55:29.035Z,4.95
2016-12-27T12:56:29.355Z,4.92
2016-12-27T12:57:29.027Z,4.94
2016-12-27T12:58:29.351Z,4.94
2016-12-27T12:59:29.019Z,4.87
2016-12-27T13:00:29.011Z,4.89
2016-12-27T13:01:29.343Z,4.92
2016-12-27T13:02:29.335Z,4.89
2016-12-27T13:03:28.995Z,4.95
2016-12-27T13:04:29.323Z,4.98
2016-12-27T13:05:29.319Z,4.98
2016-12-27T13:06:29.315Z,4.92
2016-12-27T13:07:28.991Z,5
2016-12-27T13:08:28.987Z,4.98
2016-12-27T13:09:29.303Z,4.92
2016-12-27T13:10:29.307Z,4.97
2016-12-27T13:11:29.299Z,5.01
2016-12-27T13:12:29.295Z,4.98